sensor_id;sensor_type;location;lat;lon;timestamp;P1;durP1;ratioP1;P2;durP2;ratioP2
11709;SDS011;5911;51.036;6.972;2023-02-21T00:00:47;21.10;;;16.10;;
11709;SDS011;5911;51.036;6.972;2023-02-21T00:03:32;22.97;;;16.73;;
11709;SDS011;5911;51.036;6.972;2023-02-21T00:06:17;23.50;;;17.07;;
11709;SDS011;5911;51.036;6.972;2023-02-21T00:09:03;21.43;;;16.63;;
11709;SDS011;5911;51.036;6.972;2023-02-21T00:11:50;21.97;;;16.97;;
11709;SDS011;5911;51.036;6.972;2023-02-21T00:14:35;23.60;;;16.30;;
11709;SDS011;5911;51.036;6.972;2023-02-21T00:17:22;26.30;;;16.93;;
11709;SDS011;5911;51.036;6.972;2023-02-21T00:20:08;22.10;;;16.53;;
11709;SDS011;5911;51.036;6.972;2023-02-21T00:22:53;24.57;;;17.67;;
11709;SDS011;5911;51.036;6.972;2023-02-21T00:25:39;27.27;;;19.93;;
11709;SDS011;5911;51.036;6.972;2023-02-21T00:28:24;28.03;;;20.83;;
11709;SDS011;5911;51.036;6.972;2023-02-21T00:31:10;30.90;;;21.40;;
11709;SDS011;5911;51.036;6.972;2023-02-21T00:33:56;36.57;;;22.87;;
11709;SDS011;5911;51.036;6.972;2023-02-21T00:36:41;33.30;;;23.60;;
11709;SDS011;5911;51.036;6.972;2023-02-21T00:39:27;37.83;;;24.17;;
11709;SDS011;5911;51.036;6.972;2023-02-21T00:42:12;34.90;;;23.27;;
11709;SDS011;5911;51.036;6.972;2023-02-21T00:44:58;34.20;;;23.83;;
11709;SDS011;5911;51.036;6.972;2023-02-21T00:47:43;34.10;;;24.10;;
11709;SDS011;5911;51.036;6.972;2023-02-21T00:50:29;34.03;;;23.93;;
11709;SDS011;5911;51.036;6.972;2023-02-21T00:53:14;35.10;;;24.37;;
11709;SDS011;5911;51.036;6.972;2023-02-21T00:56:03;39.13;;;26.50;;
11709;SDS011;5911;51.036;6.972;2023-02-21T00:58:48;37.30;;;25.00;;
11709;SDS011;5911;51.036;6.972;2023-02-21T01:01:34;36.50;;;23.70;;
11709;SDS011;5911;51.036;6.972;2023-02-21T01:04:19;37.33;;;25.23;;
11709;SDS011;5911;51.036;6.972;2023-02-21T01:07:06;35.33;;;24.07;;
11709;SDS011;5911;51.036;6.972;2023-02-21T01:09:52;34.37;;;24.93;;
11709;SDS011;5911;51.036;6.972;2023-02-21T01:12:41;34.27;;;24.37;;
11709;SDS011;5911;51.036;6.972;2023-02-21T01:15:26;36.83;;;25.50;;
11709;SDS011;5911;51.036;6.972;2023-02-21T01:18:12;35.47;;;24.20;;
11709;SDS011;5911;51.036;6.972;2023-02-21T01:20:57;36.73;;;25.77;;
11709;SDS011;5911;51.036;6.972;2023-02-21T01:23:44;33.70;;;24.20;;
11709;SDS011;5911;51.036;6.972;2023-02-21T01:26:29;35.43;;;25.70;;
11709;SDS011;5911;51.036;6.972;2023-02-21T01:29:16;38.43;;;24.93;;
11709;SDS011;5911;51.036;6.972;2023-02-21T01:32:01;36.90;;;25.67;;
11709;SDS011;5911;51.036;6.972;2023-02-21T01:34:46;37.13;;;25.20;;
11709;SDS011;5911;51.036;6.972;2023-02-21T01:37:31;35.43;;;25.17;;
11709;SDS011;5911;51.036;6.972;2023-02-21T01:40:18;36.87;;;25.33;;
11709;SDS011;5911;51.036;6.972;2023-02-21T01:43:08;43.63;;;26.60;;
11709;SDS011;5911;51.036;6.972;2023-02-21T01:45:57;37.47;;;25.30;;
11709;SDS011;5911;51.036;6.972;2023-02-21T01:48:43;37.40;;;26.37;;
11709;SDS011;5911;51.036;6.972;2023-02-21T01:51:30;38.77;;;26.87;;
11709;SDS011;5911;51.036;6.972;2023-02-21T01:54:18;39.33;;;26.47;;
11709;SDS011;5911;51.036;6.972;2023-02-21T01:57:06;38.60;;;26.63;;
11709;SDS011;5911;51.036;6.972;2023-02-21T01:59:54;37.97;;;26.57;;
11709;SDS011;5911;51.036;6.972;2023-02-21T02:02:43;36.93;;;25.93;;
11709;SDS011;5911;51.036;6.972;2023-02-21T02:05:42;41.03;;;26.67;;
11709;SDS011;5911;51.036;6.972;2023-02-21T02:08:35;38.03;;;25.33;;
11709;SDS011;5911;51.036;6.972;2023-02-21T02:11:33;34.43;;;25.27;;
11709;SDS011;5911;51.036;6.972;2023-02-21T02:14:50;35.87;;;25.43;;
11709;SDS011;5911;51.036;6.972;2023-02-21T02:17:32;39.30;;;24.60;;
11709;SDS011;5911;51.036;6.972;2023-02-21T02:20:23;38.27;;;25.23;;
11709;SDS011;5911;51.036;6.972;2023-02-21T02:26:14;41.33;;;25.83;;
11709;SDS011;5911;51.036;6.972;2023-02-21T02:29:09;39.87;;;25.23;;
11709;SDS011;5911;51.036;6.972;2023-02-21T02:32:03;36.17;;;24.53;;
11709;SDS011;5911;51.036;6.972;2023-02-21T02:34:46;37.33;;;24.83;;
11709;SDS011;5911;51.036;6.972;2023-02-21T02:37:21;43.27;;;26.30;;
11709;SDS011;5911;51.036;6.972;2023-02-21T02:39:56;41.53;;;26.60;;
11709;SDS011;5911;51.036;6.972;2023-02-21T02:42:35;40.80;;;26.97;;
11709;SDS011;5911;51.036;6.972;2023-02-21T02:45:08;37.27;;;25.70;;
11709;SDS011;5911;51.036;6.972;2023-02-21T02:47:41;40.57;;;27.03;;
11709;SDS011;5911;51.036;6.972;2023-02-21T02:50:12;39.33;;;27.43;;
11709;SDS011;5911;51.036;6.972;2023-02-21T02:52:48;41.93;;;27.00;;
11709;SDS011;5911;51.036;6.972;2023-02-21T02:55:23;38.50;;;25.33;;
11709;SDS011;5911;51.036;6.972;2023-02-21T02:57:57;43.50;;;28.87;;
11709;SDS011;5911;51.036;6.972;2023-02-21T03:00:26;43.07;;;27.53;;
11709;SDS011;5911;51.036;6.972;2023-02-21T03:02:58;39.50;;;27.43;;
11709;SDS011;5911;51.036;6.972;2023-02-21T03:05:42;41.00;;;27.03;;
11709;SDS011;5911;51.036;6.972;2023-02-21T03:08:22;41.07;;;28.13;;
11709;SDS011;5911;51.036;6.972;2023-02-21T03:10:57;39.90;;;27.00;;
11709;SDS011;5911;51.036;6.972;2023-02-21T03:13:34;41.17;;;27.53;;
11709;SDS011;5911;51.036;6.972;2023-02-21T03:16:11;40.80;;;26.97;;
11709;SDS011;5911;51.036;6.972;2023-02-21T03:18:43;39.50;;;25.93;;
11709;SDS011;5911;51.036;6.972;2023-02-21T03:21:18;48.00;;;28.87;;
11709;SDS011;5911;51.036;6.972;2023-02-21T03:23:50;38.07;;;26.67;;
11709;SDS011;5911;51.036;6.972;2023-02-21T03:26:22;45.13;;;29.63;;
11709;SDS011;5911;51.036;6.972;2023-02-21T03:28:55;45.80;;;28.40;;
11709;SDS011;5911;51.036;6.972;2023-02-21T03:31:25;44.23;;;29.27;;
11709;SDS011;5911;51.036;6.972;2023-02-21T03:33:57;43.07;;;28.43;;
11709;SDS011;5911;51.036;6.972;2023-02-21T03:36:29;44.23;;;27.27;;
11709;SDS011;5911;51.036;6.972;2023-02-21T03:38:57;49.53;;;28.83;;
11709;SDS011;5911;51.036;6.972;2023-02-21T03:41:26;45.40;;;29.77;;
11709;SDS011;5911;51.036;6.972;2023-02-21T03:43:54;43.93;;;27.80;;
11709;SDS011;5911;51.036;6.972;2023-02-21T03:46:22;47.17;;;28.23;;
11709;SDS011;5911;51.036;6.972;2023-02-21T03:48:50;46.67;;;29.73;;
11709;SDS011;5911;51.036;6.972;2023-02-21T03:51:24;45.10;;;28.60;;
11709;SDS011;5911;51.036;6.972;2023-02-21T03:53:53;46.80;;;29.67;;
11709;SDS011;5911;51.036;6.972;2023-02-21T03:56:27;47.37;;;29.50;;
11709;SDS011;5911;51.036;6.972;2023-02-21T03:59:27;49.03;;;28.93;;
11709;SDS011;5911;51.036;6.972;2023-02-21T04:01:56;46.40;;;29.17;;
11709;SDS011;5911;51.036;6.972;2023-02-21T04:04:26;45.80;;;30.40;;
11709;SDS011;5911;51.036;6.972;2023-02-21T04:07:04;43.43;;;28.90;;
11709;SDS011;5911;51.036;6.972;2023-02-21T04:09:33;46.57;;;29.83;;
11709;SDS011;5911;51.036;6.972;2023-02-21T04:12:01;49.90;;;30.47;;
11709;SDS011;5911;51.036;6.972;2023-02-21T04:14:31;43.67;;;28.63;;
11709;SDS011;5911;51.036;6.972;2023-02-21T04:16:58;45.87;;;28.97;;
11709;SDS011;5911;51.036;6.972;2023-02-21T04:19:27;44.37;;;29.17;;
11709;SDS011;5911;51.036;6.972;2023-02-21T04:21:55;48.50;;;30.17;;
11709;SDS011;5911;51.036;6.972;2023-02-21T04:24:23;45.13;;;28.23;;
11709;SDS011;5911;51.036;6.972;2023-02-21T04:26:52;44.43;;;29.13;;
11709;SDS011;5911;51.036;6.972;2023-02-21T04:29:21;43.10;;;28.07;;
11709;SDS011;5911;51.036;6.972;2023-02-21T04:31:50;45.27;;;28.53;;
11709;SDS011;5911;51.036;6.972;2023-02-21T04:34:18;45.93;;;28.37;;
11709;SDS011;5911;51.036;6.972;2023-02-21T04:36:46;47.00;;;29.00;;
11709;SDS011;5911;51.036;6.972;2023-02-21T04:39:15;49.00;;;29.33;;
11709;SDS011;5911;51.036;6.972;2023-02-21T04:41:43;47.23;;;29.60;;
11709;SDS011;5911;51.036;6.972;2023-02-21T04:44:12;50.13;;;28.40;;
11709;SDS011;5911;51.036;6.972;2023-02-21T04:46:40;49.87;;;29.63;;
11709;SDS011;5911;51.036;6.972;2023-02-21T04:49:12;48.13;;;29.30;;
11709;SDS011;5911;51.036;6.972;2023-02-21T04:51:40;50.47;;;30.17;;
11709;SDS011;5911;51.036;6.972;2023-02-21T04:54:08;49.90;;;28.80;;
11709;SDS011;5911;51.036;6.972;2023-02-21T04:56:39;51.50;;;28.90;;
11709;SDS011;5911;51.036;6.972;2023-02-21T04:59:07;50.53;;;29.00;;
11709;SDS011;5911;51.036;6.972;2023-02-21T05:01:44;50.10;;;29.30;;
11709;SDS011;5911;51.036;6.972;2023-02-21T05:04:20;56.27;;;29.90;;
11709;SDS011;5911;51.036;6.972;2023-02-21T05:06:48;52.27;;;29.97;;
11709;SDS011;5911;51.036;6.972;2023-02-21T05:09:16;51.10;;;29.37;;
11709;SDS011;5911;51.036;6.972;2023-02-21T05:11:43;52.80;;;29.97;;
11709;SDS011;5911;51.036;6.972;2023-02-21T05:14:11;51.17;;;29.80;;
11709;SDS011;5911;51.036;6.972;2023-02-21T05:16:41;48.90;;;30.03;;
11709;SDS011;5911;51.036;6.972;2023-02-21T05:19:16;54.30;;;30.60;;
11709;SDS011;5911;51.036;6.972;2023-02-21T05:21:53;53.13;;;30.87;;
11709;SDS011;5911;51.036;6.972;2023-02-21T05:24:22;55.33;;;30.43;;
11709;SDS011;5911;51.036;6.972;2023-02-21T05:26:51;53.30;;;30.87;;
11709;SDS011;5911;51.036;6.972;2023-02-21T05:29:19;51.50;;;29.37;;
11709;SDS011;5911;51.036;6.972;2023-02-21T05:31:48;49.70;;;28.83;;
11709;SDS011;5911;51.036;6.972;2023-02-21T05:34:16;49.77;;;29.00;;
11709;SDS011;5911;51.036;6.972;2023-02-21T05:36:45;49.67;;;28.93;;
11709;SDS011;5911;51.036;6.972;2023-02-21T05:39:13;54.43;;;30.70;;
11709;SDS011;5911;51.036;6.972;2023-02-21T05:41:45;49.23;;;29.50;;
11709;SDS011;5911;51.036;6.972;2023-02-21T05:44:13;46.30;;;28.27;;
11709;SDS011;5911;51.036;6.972;2023-02-21T05:46:41;48.60;;;27.60;;
11709;SDS011;5911;51.036;6.972;2023-02-21T05:49:10;42.93;;;26.10;;
11709;SDS011;5911;51.036;6.972;2023-02-21T05:51:40;42.83;;;24.97;;
11709;SDS011;5911;51.036;6.972;2023-02-21T05:54:12;38.30;;;24.40;;
11709;SDS011;5911;51.036;6.972;2023-02-21T05:56:42;39.77;;;24.30;;
11709;SDS011;5911;51.036;6.972;2023-02-21T05:59:11;41.80;;;25.90;;
11709;SDS011;5911;51.036;6.972;2023-02-21T06:01:40;38.63;;;23.40;;
11709;SDS011;5911;51.036;6.972;2023-02-21T06:04:08;38.50;;;24.00;;
11709;SDS011;5911;51.036;6.972;2023-02-21T06:06:37;40.43;;;24.53;;
11709;SDS011;5911;51.036;6.972;2023-02-21T06:09:07;43.43;;;25.33;;
11709;SDS011;5911;51.036;6.972;2023-02-21T06:11:36;39.17;;;24.00;;
11709;SDS011;5911;51.036;6.972;2023-02-21T06:14:06;40.93;;;25.60;;
11709;SDS011;5911;51.036;6.972;2023-02-21T06:16:39;39.13;;;23.67;;
11709;SDS011;5911;51.036;6.972;2023-02-21T06:19:08;39.57;;;24.30;;
11709;SDS011;5911;51.036;6.972;2023-02-21T06:21:39;41.57;;;25.90;;
11709;SDS011;5911;51.036;6.972;2023-02-21T06:24:07;44.77;;;25.50;;
11709;SDS011;5911;51.036;6.972;2023-02-21T06:26:36;48.30;;;28.33;;
11709;SDS011;5911;51.036;6.972;2023-02-21T06:29:06;58.33;;;32.13;;
11709;SDS011;5911;51.036;6.972;2023-02-21T06:31:34;64.30;;;32.23;;
11709;SDS011;5911;51.036;6.972;2023-02-21T06:34:02;62.77;;;33.77;;
11709;SDS011;5911;51.036;6.972;2023-02-21T06:36:30;66.73;;;35.97;;
11709;SDS011;5911;51.036;6.972;2023-02-21T06:39:00;68.53;;;36.87;;
11709;SDS011;5911;51.036;6.972;2023-02-21T06:41:30;70.03;;;35.23;;
11709;SDS011;5911;51.036;6.972;2023-02-21T06:44:00;74.03;;;37.23;;
11709;SDS011;5911;51.036;6.972;2023-02-21T06:46:28;65.97;;;33.37;;
11709;SDS011;5911;51.036;6.972;2023-02-21T06:48:57;58.73;;;32.10;;
11709;SDS011;5911;51.036;6.972;2023-02-21T06:51:25;63.93;;;34.10;;
11709;SDS011;5911;51.036;6.972;2023-02-21T06:53:55;70.53;;;37.23;;
11709;SDS011;5911;51.036;6.972;2023-02-21T06:56:26;70.20;;;36.13;;
11709;SDS011;5911;51.036;6.972;2023-02-21T06:58:55;70.90;;;37.03;;
11709;SDS011;5911;51.036;6.972;2023-02-21T07:01:25;72.87;;;37.83;;
11709;SDS011;5911;51.036;6.972;2023-02-21T07:03:54;68.23;;;37.53;;
11709;SDS011;5911;51.036;6.972;2023-02-21T07:06:23;69.03;;;36.57;;
11709;SDS011;5911;51.036;6.972;2023-02-21T07:08:55;73.53;;;36.50;;
11709;SDS011;5911;51.036;6.972;2023-02-21T07:11:22;71.43;;;36.93;;
11709;SDS011;5911;51.036;6.972;2023-02-21T07:13:52;77.97;;;39.37;;
11709;SDS011;5911;51.036;6.972;2023-02-21T07:16:22;77.17;;;38.47;;
11709;SDS011;5911;51.036;6.972;2023-02-21T07:18:49;78.13;;;39.20;;
11709;SDS011;5911;51.036;6.972;2023-02-21T07:21:17;78.93;;;38.57;;
11709;SDS011;5911;51.036;6.972;2023-02-21T07:23:47;71.90;;;37.17;;
11709;SDS011;5911;51.036;6.972;2023-02-21T07:26:15;77.40;;;38.13;;
11709;SDS011;5911;51.036;6.972;2023-02-21T07:28:43;77.10;;;39.30;;
11709;SDS011;5911;51.036;6.972;2023-02-21T07:31:15;78.13;;;37.53;;
11709;SDS011;5911;51.036;6.972;2023-02-21T07:33:45;71.67;;;35.20;;
11709;SDS011;5911;51.036;6.972;2023-02-21T07:36:13;68.27;;;32.73;;
11709;SDS011;5911;51.036;6.972;2023-02-21T07:38:40;63.60;;;32.33;;
11709;SDS011;5911;51.036;6.972;2023-02-21T07:41:08;63.33;;;31.13;;
11709;SDS011;5911;51.036;6.972;2023-02-21T07:43:36;56.63;;;29.43;;
11709;SDS011;5911;51.036;6.972;2023-02-21T07:46:08;53.63;;;28.70;;
11709;SDS011;5911;51.036;6.972;2023-02-21T07:48:37;70.20;;;32.47;;
11709;SDS011;5911;51.036;6.972;2023-02-21T07:51:09;71.77;;;33.40;;
11709;SDS011;5911;51.036;6.972;2023-02-21T07:53:37;68.67;;;33.10;;
11709;SDS011;5911;51.036;6.972;2023-02-21T07:56:04;69.00;;;34.40;;
11709;SDS011;5911;51.036;6.972;2023-02-21T07:58:34;83.07;;;35.53;;
11709;SDS011;5911;51.036;6.972;2023-02-21T08:01:03;76.10;;;34.23;;
11709;SDS011;5911;51.036;6.972;2023-02-21T08:03:32;73.93;;;34.17;;
11709;SDS011;5911;51.036;6.972;2023-02-21T08:06:02;73.50;;;32.97;;
11709;SDS011;5911;51.036;6.972;2023-02-21T08:08:30;74.67;;;32.83;;
11709;SDS011;5911;51.036;6.972;2023-02-21T08:10:58;78.70;;;34.77;;
11709;SDS011;5911;51.036;6.972;2023-02-21T08:13:28;71.40;;;31.83;;
11709;SDS011;5911;51.036;6.972;2023-02-21T08:15:56;63.43;;;30.37;;
11709;SDS011;5911;51.036;6.972;2023-02-21T08:18:24;60.10;;;28.70;;
11709;SDS011;5911;51.036;6.972;2023-02-21T08:20:52;57.47;;;27.60;;
11709;SDS011;5911;51.036;6.972;2023-02-21T08:23:28;58.40;;;28.03;;
11709;SDS011;5911;51.036;6.972;2023-02-21T08:25:56;57.60;;;28.40;;
11709;SDS011;5911;51.036;6.972;2023-02-21T08:28:24;54.23;;;28.27;;
11709;SDS011;5911;51.036;6.972;2023-02-21T08:30:52;56.97;;;28.13;;
11709;SDS011;5911;51.036;6.972;2023-02-21T08:33:19;59.77;;;27.97;;
11709;SDS011;5911;51.036;6.972;2023-02-21T08:35:47;54.80;;;26.57;;
11709;SDS011;5911;51.036;6.972;2023-02-21T08:38:16;62.20;;;29.23;;
11709;SDS011;5911;51.036;6.972;2023-02-21T08:40:46;64.43;;;28.47;;
11709;SDS011;5911;51.036;6.972;2023-02-21T08:43:14;65.07;;;28.60;;
11709;SDS011;5911;51.036;6.972;2023-02-21T08:45:42;61.17;;;29.67;;
11709;SDS011;5911;51.036;6.972;2023-02-21T08:48:10;65.90;;;29.23;;
11709;SDS011;5911;51.036;6.972;2023-02-21T08:50:38;62.40;;;30.60;;
11709;SDS011;5911;51.036;6.972;2023-02-21T08:53:06;74.37;;;35.27;;
11709;SDS011;5911;51.036;6.972;2023-02-21T08:55:33;77.80;;;34.33;;
11709;SDS011;5911;51.036;6.972;2023-02-21T08:58:02;75.50;;;33.37;;
11709;SDS011;5911;51.036;6.972;2023-02-21T09:00:30;72.23;;;33.37;;
11709;SDS011;5911;51.036;6.972;2023-02-21T09:02:58;65.40;;;30.10;;
11709;SDS011;5911;51.036;6.972;2023-02-21T09:05:27;63.97;;;29.37;;
11709;SDS011;5911;51.036;6.972;2023-02-21T09:07:57;54.93;;;27.00;;
11709;SDS011;5911;51.036;6.972;2023-02-21T09:10:27;60.60;;;28.83;;
11709;SDS011;5911;51.036;6.972;2023-02-21T09:12:59;60.33;;;29.70;;
11709;SDS011;5911;51.036;6.972;2023-02-21T09:15:29;62.77;;;29.87;;
11709;SDS011;5911;51.036;6.972;2023-02-21T09:17:57;67.23;;;31.17;;
11709;SDS011;5911;51.036;6.972;2023-02-21T09:20:26;65.00;;;30.37;;
11709;SDS011;5911;51.036;6.972;2023-02-21T09:22:53;59.60;;;28.00;;
11709;SDS011;5911;51.036;6.972;2023-02-21T09:25:22;62.93;;;28.93;;
11709;SDS011;5911;51.036;6.972;2023-02-21T09:27:51;58.60;;;28.23;;
11709;SDS011;5911;51.036;6.972;2023-02-21T09:30:21;54.77;;;27.97;;
11709;SDS011;5911;51.036;6.972;2023-02-21T09:32:53;58.67;;;27.67;;
11709;SDS011;5911;51.036;6.972;2023-02-21T09:35:22;55.60;;;28.23;;
11709;SDS011;5911;51.036;6.972;2023-02-21T09:37:50;52.03;;;26.53;;
11709;SDS011;5911;51.036;6.972;2023-02-21T09:40:20;63.77;;;30.27;;
11709;SDS011;5911;51.036;6.972;2023-02-21T09:42:57;63.77;;;29.97;;
11709;SDS011;5911;51.036;6.972;2023-02-21T09:45:26;61.43;;;28.67;;
11709;SDS011;5911;51.036;6.972;2023-02-21T09:48:00;60.67;;;29.17;;
11709;SDS011;5911;51.036;6.972;2023-02-21T09:50:32;55.77;;;27.13;;
11709;SDS011;5911;51.036;6.972;2023-02-21T09:53:05;55.80;;;27.60;;
11709;SDS011;5911;51.036;6.972;2023-02-21T09:55:35;55.97;;;27.73;;
11709;SDS011;5911;51.036;6.972;2023-02-21T09:58:05;52.57;;;26.80;;
11709;SDS011;5911;51.036;6.972;2023-02-21T10:00:38;56.90;;;27.90;;
11709;SDS011;5911;51.036;6.972;2023-02-21T10:03:13;51.43;;;27.13;;
11709;SDS011;5911;51.036;6.972;2023-02-21T10:05:50;49.50;;;26.40;;
11709;SDS011;5911;51.036;6.972;2023-02-21T10:08:23;58.30;;;27.53;;
11709;SDS011;5911;51.036;6.972;2023-02-21T10:11:04;56.40;;;25.33;;
11709;SDS011;5911;51.036;6.972;2023-02-21T10:13:48;58.60;;;26.93;;
11709;SDS011;5911;51.036;6.972;2023-02-21T10:16:23;43.10;;;23.47;;
11709;SDS011;5911;51.036;6.972;2023-02-21T10:18:59;46.83;;;25.70;;
11709;SDS011;5911;51.036;6.972;2023-02-21T10:21:31;54.80;;;26.03;;
11709;SDS011;5911;51.036;6.972;2023-02-21T10:24:04;56.03;;;28.60;;
11709;SDS011;5911;51.036;6.972;2023-02-21T10:26:38;58.63;;;28.23;;
11709;SDS011;5911;51.036;6.972;2023-02-21T10:29:15;53.40;;;27.70;;
11709;SDS011;5911;51.036;6.972;2023-02-21T10:31:48;58.43;;;30.03;;
11709;SDS011;5911;51.036;6.972;2023-02-21T10:34:24;58.30;;;28.50;;
11709;SDS011;5911;51.036;6.972;2023-02-21T10:36:53;53.43;;;28.27;;
11709;SDS011;5911;51.036;6.972;2023-02-21T10:39:25;59.47;;;27.83;;
11709;SDS011;5911;51.036;6.972;2023-02-21T10:41:56;53.57;;;26.50;;
11709;SDS011;5911;51.036;6.972;2023-02-21T10:44:25;58.03;;;28.70;;
11709;SDS011;5911;51.036;6.972;2023-02-21T10:46:59;59.43;;;29.17;;
11709;SDS011;5911;51.036;6.972;2023-02-21T10:49:32;55.33;;;28.57;;
11709;SDS011;5911;51.036;6.972;2023-02-21T10:52:08;58.87;;;28.87;;
11709;SDS011;5911;51.036;6.972;2023-02-21T10:54:37;61.57;;;29.40;;
11709;SDS011;5911;51.036;6.972;2023-02-21T10:57:06;57.53;;;29.63;;
11709;SDS011;5911;51.036;6.972;2023-02-21T10:59:38;57.70;;;29.63;;
11709;SDS011;5911;51.036;6.972;2023-02-21T11:02:24;52.17;;;29.13;;
11709;SDS011;5911;51.036;6.972;2023-02-21T11:04:56;62.17;;;31.07;;
11709;SDS011;5911;51.036;6.972;2023-02-21T11:07:36;57.60;;;30.40;;
11709;SDS011;5911;51.036;6.972;2023-02-21T11:10:15;54.20;;;29.17;;
11709;SDS011;5911;51.036;6.972;2023-02-21T11:13:00;55.73;;;30.10;;
11709;SDS011;5911;51.036;6.972;2023-02-21T11:15:29;56.10;;;29.73;;
11709;SDS011;5911;51.036;6.972;2023-02-21T11:18:02;53.93;;;29.33;;
11709;SDS011;5911;51.036;6.972;2023-02-21T11:20:33;52.03;;;30.17;;
11709;SDS011;5911;51.036;6.972;2023-02-21T11:23:01;53.80;;;30.47;;
11709;SDS011;5911;51.036;6.972;2023-02-21T11:25:32;51.23;;;27.70;;
11709;SDS011;5911;51.036;6.972;2023-02-21T11:28:06;50.13;;;27.47;;
11709;SDS011;5911;51.036;6.972;2023-02-21T11:30:46;54.23;;;29.20;;
11709;SDS011;5911;51.036;6.972;2023-02-21T11:33:18;47.67;;;27.13;;
11709;SDS011;5911;51.036;6.972;2023-02-21T11:35:49;49.37;;;26.87;;
11709;SDS011;5911;51.036;6.972;2023-02-21T11:38:30;52.03;;;27.20;;
11709;SDS011;5911;51.036;6.972;2023-02-21T11:41:02;47.47;;;27.37;;
11709;SDS011;5911;51.036;6.972;2023-02-21T11:43:44;47.33;;;26.17;;
11709;SDS011;5911;51.036;6.972;2023-02-21T11:46:15;51.90;;;28.43;;
11709;SDS011;5911;51.036;6.972;2023-02-21T11:48:50;49.40;;;27.10;;
11709;SDS011;5911;51.036;6.972;2023-02-21T11:51:33;56.03;;;29.67;;
11709;SDS011;5911;51.036;6.972;2023-02-21T11:54:08;51.57;;;29.00;;
11709;SDS011;5911;51.036;6.972;2023-02-21T11:56:41;47.90;;;27.10;;
11709;SDS011;5911;51.036;6.972;2023-02-21T11:59:21;51.57;;;28.27;;
11709;SDS011;5911;51.036;6.972;2023-02-21T12:01:57;46.60;;;26.50;;
11709;SDS011;5911;51.036;6.972;2023-02-21T12:04:47;52.03;;;28.17;;
11709;SDS011;5911;51.036;6.972;2023-02-21T12:07:31;50.20;;;28.17;;
11709;SDS011;5911;51.036;6.972;2023-02-21T12:10:08;53.77;;;27.53;;
11709;SDS011;5911;51.036;6.972;2023-02-21T12:12:55;55.10;;;29.40;;
11709;SDS011;5911;51.036;6.972;2023-02-21T12:15:33;57.43;;;31.27;;
11709;SDS011;5911;51.036;6.972;2023-02-21T12:18:27;56.23;;;31.23;;
11709;SDS011;5911;51.036;6.972;2023-02-21T12:24:02;57.83;;;31.90;;
11709;SDS011;5911;51.036;6.972;2023-02-21T12:26:52;62.50;;;32.43;;
11709;SDS011;5911;51.036;6.972;2023-02-21T12:29:31;59.50;;;32.03;;
11709;SDS011;5911;51.036;6.972;2023-02-21T12:32:15;55.57;;;31.93;;
11709;SDS011;5911;51.036;6.972;2023-02-21T12:34:57;65.63;;;32.93;;
11709;SDS011;5911;51.036;6.972;2023-02-21T12:37:45;63.73;;;33.07;;
11709;SDS011;5911;51.036;6.972;2023-02-21T12:40:26;63.90;;;34.43;;
11709;SDS011;5911;51.036;6.972;2023-02-21T12:42:59;56.20;;;33.93;;
11709;SDS011;5911;51.036;6.972;2023-02-21T12:45:48;63.90;;;35.20;;
11709;SDS011;5911;51.036;6.972;2023-02-21T12:48:29;71.90;;;35.87;;
11709;SDS011;5911;51.036;6.972;2023-02-21T12:51:01;60.83;;;36.03;;
11709;SDS011;5911;51.036;6.972;2023-02-21T12:53:34;65.80;;;35.60;;
11709;SDS011;5911;51.036;6.972;2023-02-21T12:56:10;61.53;;;35.30;;
11709;SDS011;5911;51.036;6.972;2023-02-21T12:58:43;60.33;;;32.60;;
11709;SDS011;5911;51.036;6.972;2023-02-21T13:01:17;59.33;;;33.83;;
11709;SDS011;5911;51.036;6.972;2023-02-21T13:03:51;57.37;;;31.43;;
11709;SDS011;5911;51.036;6.972;2023-02-21T13:06:27;62.83;;;33.53;;
11709;SDS011;5911;51.036;6.972;2023-02-21T13:09:00;67.57;;;35.40;;
11709;SDS011;5911;51.036;6.972;2023-02-21T13:11:38;65.80;;;35.83;;
11709;SDS011;5911;51.036;6.972;2023-02-21T13:14:10;65.17;;;37.27;;
11709;SDS011;5911;51.036;6.972;2023-02-21T13:16:43;65.67;;;36.03;;
11709;SDS011;5911;51.036;6.972;2023-02-21T13:19:11;67.40;;;37.83;;
11709;SDS011;5911;51.036;6.972;2023-02-21T13:21:45;70.67;;;37.50;;
11709;SDS011;5911;51.036;6.972;2023-02-21T13:24:23;64.73;;;35.80;;
11709;SDS011;5911;51.036;6.972;2023-02-21T13:27:25;68.53;;;36.63;;
11709;SDS011;5911;51.036;6.972;2023-02-21T13:30:02;67.23;;;37.80;;
11709;SDS011;5911;51.036;6.972;2023-02-21T13:32:39;70.60;;;38.20;;
11709;SDS011;5911;51.036;6.972;2023-02-21T13:35:19;64.40;;;35.97;;
11709;SDS011;5911;51.036;6.972;2023-02-21T13:37:51;74.77;;;39.27;;
11709;SDS011;5911;51.036;6.972;2023-02-21T13:40:21;73.67;;;39.40;;
11709;SDS011;5911;51.036;6.972;2023-02-21T13:43:00;71.03;;;38.17;;
11709;SDS011;5911;51.036;6.972;2023-02-21T13:45:31;70.23;;;38.70;;
11709;SDS011;5911;51.036;6.972;2023-02-21T13:48:15;69.80;;;36.97;;
11709;SDS011;5911;51.036;6.972;2023-02-21T13:50:50;72.23;;;38.97;;
11709;SDS011;5911;51.036;6.972;2023-02-21T13:53:20;73.73;;;39.57;;
11709;SDS011;5911;51.036;6.972;2023-02-21T14:05:00;80.80;;;40.60;;
11709;SDS011;5911;51.036;6.972;2023-02-21T14:10:30;85.40;;;41.83;;
11709;SDS011;5911;51.036;6.972;2023-02-21T14:13:04;81.97;;;41.50;;
11709;SDS011;5911;51.036;6.972;2023-02-21T14:15:37;87.83;;;42.90;;
11709;SDS011;5911;51.036;6.972;2023-02-21T14:18:15;86.50;;;44.27;;
11709;SDS011;5911;51.036;6.972;2023-02-21T14:20:47;83.70;;;43.17;;
11709;SDS011;5911;51.036;6.972;2023-02-21T14:23:16;80.37;;;42.43;;
11709;SDS011;5911;51.036;6.972;2023-02-21T14:25:53;73.57;;;39.17;;
11709;SDS011;5911;51.036;6.972;2023-02-21T14:34:14;77.33;;;41.43;;
11709;SDS011;5911;51.036;6.972;2023-02-21T14:36:47;72.33;;;40.23;;
11709;SDS011;5911;51.036;6.972;2023-02-21T14:39:17;80.23;;;40.37;;
11709;SDS011;5911;51.036;6.972;2023-02-21T14:41:50;74.93;;;38.87;;
11709;SDS011;5911;51.036;6.972;2023-02-21T14:44:29;71.97;;;38.47;;
11709;SDS011;5911;51.036;6.972;2023-02-21T14:47:11;68.77;;;38.50;;
11709;SDS011;5911;51.036;6.972;2023-02-21T14:59:15;51.27;;;29.33;;
11709;SDS011;5911;51.036;6.972;2023-02-21T15:01:54;48.60;;;29.03;;
11709;SDS011;5911;51.036;6.972;2023-02-21T15:04:32;47.57;;;28.53;;
11709;SDS011;5911;51.036;6.972;2023-02-21T15:07:10;47.67;;;29.57;;
11709;SDS011;5911;51.036;6.972;2023-02-21T15:09:44;49.90;;;30.57;;
11709;SDS011;5911;51.036;6.972;2023-02-21T15:12:13;47.77;;;29.40;;
11709;SDS011;5911;51.036;6.972;2023-02-21T15:14:46;47.80;;;28.63;;
11709;SDS011;5911;51.036;6.972;2023-02-21T15:17:16;43.17;;;27.83;;
11709;SDS011;5911;51.036;6.972;2023-02-21T15:19:48;40.43;;;26.93;;
11709;SDS011;5911;51.036;6.972;2023-02-21T15:22:31;41.33;;;26.17;;
11709;SDS011;5911;51.036;6.972;2023-02-21T15:25:01;46.27;;;28.40;;
11709;SDS011;5911;51.036;6.972;2023-02-21T15:27:56;42.77;;;27.10;;
11709;SDS011;5911;51.036;6.972;2023-02-21T15:30:28;42.20;;;27.53;;
11709;SDS011;5911;51.036;6.972;2023-02-21T15:33:01;44.87;;;28.10;;
11709;SDS011;5911;51.036;6.972;2023-02-21T15:35:35;47.23;;;29.77;;
11709;SDS011;5911;51.036;6.972;2023-02-21T15:38:06;51.07;;;30.67;;
11709;SDS011;5911;51.036;6.972;2023-02-21T15:40:41;51.83;;;33.00;;
11709;SDS011;5911;51.036;6.972;2023-02-21T15:43:12;51.20;;;31.70;;
11709;SDS011;5911;51.036;6.972;2023-02-21T15:45:56;52.40;;;31.97;;
11709;SDS011;5911;51.036;6.972;2023-02-21T15:48:27;54.47;;;32.47;;
11709;SDS011;5911;51.036;6.972;2023-02-21T15:50:59;60.17;;;33.97;;